Time;durP1;ratioP1;P1;durP2;ratioP2;P2;SDS_P1;SDS_P2;PMS_P1;PMS_P2;Temp;Humidity;BMP_temperature;BMP_pressure;BME280_temperature;BME280_humidity;BME280_pressure;Samples;Min_cycle;Max_cycle;Signal;HPM_P1;HPM_P2
2023/06/15 00:00:57;;;;;;;7.07;3.53;;;;;;;20.60;38.32;101756.06;4968910;28;114224;-64
2023/06/15 00:03:25;;;;;;;4.50;4.03;;;;;;;20.55;38.74;101758.19;4966747;28;125319;-62
2023/06/15 00:05:53;;;;;;;4.15;3.60;;;;;;;20.53;38.83;101765.50;4969252;28;124669;-62
2023/06/15 00:08:20;;;;;;;5.47;3.58;;;;;;;20.49;38.75;101764.00;4968557;28;114272;-62
2023/06/15 00:10:48;;;;;;;7.40;4.07;;;;;;;20.43;38.91;101766.16;4969050;28;114668;-62
2023/06/15 00:13:16;;;;;;;5.20;4.28;;;;;;;20.40;38.94;101762.88;4969365;28;124401;-62
2023/06/15 00:15:43;;;;;;;4.78;4.10;;;;;;;20.36;39.02;101761.34;4970304;28;125516;-62
2023/06/15 00:18:12;;;;;;;5.05;3.83;;;;;;;20.32;39.01;101758.00;4968584;28;114374;-62
2023/06/15 00:20:39;;;;;;;6.85;4.07;;;;;;;20.29;39.04;101762.78;4967078;28;114329;-64
2023/06/15 00:23:08;;;;;;;6.18;4.00;;;;;;;20.25;39.33;101762.13;4968942;28;123729;-62
2023/06/15 00:25:37;;;;;;;5.15;3.67;;;;;;;20.21;39.36;101755.22;4968107;28;124682;-62
2023/06/15 00:28:04;;;;;;;6.40;3.80;;;;;;;20.19;39.53;101757.16;4970789;28;114301;-63
2023/06/15 00:30:31;;;;;;;5.68;3.75;;;;;;;20.18;39.51;101755.47;4970885;28;114234;-62
2023/06/15 00:32:59;;;;;;;9.18;3.90;;;;;;;20.16;39.53;101763.63;4968444;28;124188;-63
2023/06/15 00:35:26;;;;;;;7.22;3.90;;;;;;;20.12;39.83;101762.13;4967793;28;124625;-63
2023/06/15 00:37:54;;;;;;;7.25;3.95;;;;;;;20.10;40.02;101764.09;4969447;28;114424;-62
2023/06/15 00:40:22;;;;;;;4.93;3.80;;;;;;;20.08;40.22;101771.41;4969892;28;115332;-62
2023/06/15 00:42:49;;;;;;;7.90;3.92;;;;;;;20.07;40.18;101768.81;4969464;28;123965;-62
2023/06/15 00:45:16;;;;;;;10.65;4.60;;;;;;;20.05;40.11;101765.38;4953980;28;124276;-62
2023/06/15 00:47:46;;;;;;;6.07;4.15;;;;;;;20.03;40.46;101770.84;4975005;28;114021;-62
2023/06/15 00:50:18;;;;;;;10.20;3.88;;;;;;;19.99;40.33;101778.28;4968959;28;113318;-62
2023/06/15 00:52:48;;;;;;;5.95;3.63;;;;;;;19.98;40.40;101776.53;4969197;28;124237;-62
2023/06/15 00:55:23;;;;;;;5.88;3.83;;;;;;;19.97;40.22;101779.34;4961213;28;124044;-63
2023/06/15 00:57:52;;;;;;;4.88;4.30;;;;;;;19.95;40.51;101782.16;4980184;28;113159;-62
2023/06/15 01:00:20;;;;;;;5.30;3.85;;;;;;;19.94;40.54;101774.19;4960654;28;114046;-62
2023/06/15 01:02:50;;;;;;;3.95;3.58;;;;;;;19.90;40.59;101781.59;4979027;28;123039;-63
2023/06/15 01:05:18;;;;;;;6.43;4.15;;;;;;;19.87;40.59;101778.25;4968419;28;124295;-63
2023/06/15 01:07:48;;;;;;;7.72;4.25;;;;;;;19.80;40.72;101783.22;4967920;28;114387;-63
2023/06/15 01:10:18;;;;;;;5.80;3.83;;;;;;;19.75;40.79;101785.34;4959338;28;114397;-62
2023/06/15 01:12:50;;;;;;;5.90;4.20;;;;;;;19.69;40.90;101777.69;4966757;28;124339;-62
2023/06/15 01:15:18;;;;;;;5.70;4.03;;;;;;;19.63;40.84;101782.50;4968186;28;123359;-62
2023/06/15 01:17:53;;;;;;;5.93;4.20;;;;;;;19.56;41.04;101773.13;4966823;28;114348;-62
2023/06/15 01:20:46;;;;;;;6.47;3.88;;;;;;;19.51;41.36;101777.97;4970702;28;114362;-63
2023/06/15 01:23:21;;;;;;;7.20;3.95;;;;;;;19.49;41.37;101779.88;4956165;28;124056;-62
2023/06/15 01:25:54;;;;;;;;;;;;;;;19.45;40.31;101781.06;4968430;28;123566;-63
2023/06/15 01:28:22;;;;;;;4.72;3.70;;;;;;;19.44;41.06;101782.06;4967605;28;115820;-63
2023/06/15 01:30:57;;;;;;;7.53;4.18;;;;;;;19.40;41.54;101780.50;4969366;28;113864;-62
2023/06/15 01:33:25;;;;;;;7.30;4.35;;;;;;;19.36;41.44;101779.00;4967801;28;124667;-63
2023/06/15 01:35:53;;;;;;;7.15;4.22;;;;;;;19.33;41.60;101784.59;4966029;28;123484;-62
2023/06/15 01:38:24;;;;;;;6.28;4.20;;;;;;;19.28;41.86;101792.09;4962522;28;114417;-62
2023/06/15 01:40:53;;;;;;;8.07;4.55;;;;;;;19.24;41.92;101786.91;4968829;28;113003;-63
2023/06/15 01:43:25;;;;;;;11.80;4.43;;;;;;;19.22;42.04;101791.53;4967820;28;124331;-63
2023/06/15 01:45:54;;;;;;;5.07;4.05;;;;;;;19.20;42.18;101790.78;4971469;28;122780;-62
2023/06/15 01:48:22;;;;;;;5.93;4.50;;;;;;;19.17;42.14;101795.47;4952267;28;114864;-63
2023/06/15 01:50:51;;;;;;;6.78;4.00;;;;;;;19.14;42.17;101795.72;4956632;28;113132;-63
2023/06/15 01:53:20;;;;;;;7.05;4.60;;;;;;;19.10;42.25;101784.31;4980177;28;123326;-64
2023/06/15 01:55:48;;;;;;;7.80;4.25;;;;;;;19.08;42.13;101786.22;4969580;28;123938;-63
2023/06/15 01:58:16;;;;;;;6.68;4.03;;;;;;;19.05;42.26;101786.44;4957698;28;113101;-63
2023/06/15 02:00:44;;;;;;;6.13;4.45;;;;;;;19.02;42.61;101787.50;4969554;28;113101;-62
2023/06/15 02:03:12;;;;;;;5.43;4.28;;;;;;;19.01;42.53;101790.28;4966749;28;123809;-63
2023/06/15 02:05:40;;;;;;;6.13;4.55;;;;;;;18.98;42.66;101785.94;4965537;28;125200;-63
2023/06/15 02:08:09;;;;;;;5.43;4.03;;;;;;;18.97;42.96;101783.41;4967458;28;114563;-63
2023/06/15 02:10:38;;;;;;;5.70;4.30;;;;;;;18.95;42.91;101785.28;4969151;28;113350;-63
2023/06/15 02:13:11;;;;;;;7.63;4.60;;;;;;;18.94;42.90;101783.59;4968380;28;123634;-64
2023/06/15 02:15:39;;;;;;;8.07;4.13;;;;;;;18.93;42.87;101781.84;4968287;28;124124;-63
2023/06/15 02:18:12;;;;;;;5.88;4.07;;;;;;;18.91;43.03;101779.28;4968674;28;114837;-63
2023/06/15 02:20:43;;;;;;;5.53;4.13;;;;;;;18.90;43.18;101784.75;4968949;28;113833;-63
2023/06/15 02:23:11;;;;;;;6.57;4.53;;;;;;;18.88;43.02;101781.31;4966916;28;123416;-63
2023/06/15 02:25:39;;;;;;;7.03;4.60;;;;;;;18.84;43.17;101783.31;4966596;28;122921;-62
2023/06/15 02:28:06;;;;;;;6.03;4.70;;;;;;;18.81;43.26;101784.38;4970598;28;113704;-62
2023/06/15 02:30:36;;;;;;;6.03;4.28;;;;;;;18.80;43.36;101788.03;4971567;28;113791;-62
2023/06/15 02:33:05;;;;;;;4.90;4.18;;;;;;;18.77;43.04;101793.53;4967888;28;123366;-62
2023/06/15 02:35:32;;;;;;;6.72;4.68;;;;;;;18.76;43.40;101790.97;4969888;28;123095;-62
2023/06/15 02:38:00;;;;;;;7.05;4.70;;;;;;;18.75;43.25;101790.09;4971646;28;113811;-63
2023/06/15 02:40:27;;;;;;;5.80;4.63;;;;;;;18.73;43.33;101797.41;4971227;28;113054;-63
2023/06/15 02:42:54;;;;;;;7.45;4.85;;;;;;;18.71;43.25;101793.94;4954255;28;123704;-63
2023/06/15 02:45:22;;;;;;;10.10;4.57;;;;;;;18.68;43.32;101792.34;4969804;28;122930;-63
2023/06/15 02:47:49;;;;;;;7.32;4.95;;;;;;;18.66;43.32;101801.44;4972139;28;114531;-63
2023/06/15 02:50:17;;;;;;;7.40;5.40;;;;;;;18.64;43.68;101803.34;4970841;28;113096;-63
2023/06/15 02:52:53;;;;;;;5.45;4.68;;;;;;;18.62;43.62;101810.63;4970071;28;126586;-62
2023/06/15 02:55:21;;;;;;;7.88;5.30;;;;;;;18.59;43.83;101800.09;4969767;28;123262;-61
2023/06/15 02:57:49;;;;;;;7.35;5.28;;;;;;;18.60;43.75;101808.03;4971214;28;114015;-61
2023/06/15 03:00:32;;;;;;;11.52;5.10;;;;;;;18.58;43.83;101806.44;4982137;28;116329;-62
2023/06/15 03:03:12;;;;;;;6.57;4.85;;;;;;;18.58;43.85;101806.44;4969807;28;124388;-62
2023/06/15 03:05:43;;;;;;;6.90;4.55;;;;;;;18.57;43.75;101807.38;4969720;28;122959;-62
2023/06/15 03:08:12;;;;;;;7.32;5.30;;;;;;;18.54;43.91;101802.22;4970601;28;114834;-61
2023/06/15 03:10:58;;;;;;;9.68;5.35;;;;;;;18.52;43.77;101804.16;4970592;28;114824;-62
2023/06/15 03:13:25;;;;;;;7.13;5.13;;;;;;;18.49;43.78;101800.66;4968621;28;125373;-62
2023/06/15 03:15:53;;;;;;;7.25;5.00;;;;;;;18.47;43.75;101807.97;4968625;28;123009;-61
2023/06/15 03:18:20;;;;;;;13.63;5.78;;;;;;;18.47;43.96;101807.97;4970061;28;113854;-61
2023/06/15 03:20:52;;;;;;;5.75;5.13;;;;;;;18.44;43.90;101808.16;4968457;28;114319;-61
2023/06/15 03:23:20;;;;;;;9.48;5.30;;;;;;;18.43;44.08;101803.75;4970798;28;123258;-63
2023/06/15 03:25:51;;;;;;;5.85;5.10;;;;;;;18.42;44.15;101804.72;4968941;28;123587;-63
2023/06/15 03:28:24;;;;;;;6.38;5.65;;;;;;;18.41;44.24;101808.34;4970990;28;113536;-63
2023/06/15 03:30:53;;;;;;;7.75;5.13;;;;;;;18.39;44.32;101815.63;4971281;28;113607;-63
2023/06/15 03:33:21;;;;;;;7.30;5.60;;;;;;;18.38;44.21;101807.69;4969848;28;123597;-63
2023/06/15 03:35:50;;;;;;;7.82;5.53;;;;;;;18.36;44.32;101815.81;4954202;28;123117;-62
2023/06/15 03:38:17;;;;;;;7.35;5.38;;;;;;;18.35;44.31;101808.75;4953771;28;113371;-61
2023/06/15 03:40:45;;;;;;;13.18;5.22;;;;;;;18.34;44.42;101809.69;4971051;28;114053;-61
2023/06/15 03:43:14;;;;;;;6.93;5.53;;;;;;;18.34;44.55;101812.38;4970555;28;123016;-62
2023/06/15 03:45:43;;;;;;;10.55;5.40;;;;;;;18.34;44.62;101816.88;4970444;28;122960;-62
2023/06/15 03:48:11;;;;;;;6.85;5.18;;;;;;;18.33;44.57;101816.03;4970237;28;114551;-64
2023/06/15 03:50:38;;;;;;;8.45;5.68;;;;;;;18.34;44.70;101817.72;4969867;28;113938;-63
2023/06/15 03:53:07;;;;;;;7.95;5.72;;;;;;;18.35;44.95;101811.41;4968611;28;124915;-63
2023/06/15 03:55:36;;;;;;;9.88;5.80;;;;;;;18.34;44.81;101812.38;4968625;28;122518;-63
2023/06/15 03:58:03;;;;;;;9.27;5.57;;;;;;;18.34;44.81;101816.88;4968385;28;114268;-64
2023/06/15 04:00:31;;;;;;;7.78;5.75;;;;;;;18.33;44.91;101816.03;4967848;28;114317;-63
2023/06/15 04:03:00;;;;;;;11.52;6.32;;;;;;;18.32;45.16;101819.66;4965161;28;124533;-63
2023/06/15 04:05:27;;;;;;;8.55;5.65;;;;;;;18.30;45.30;101821.56;4956294;28;124767;-63
2023/06/15 04:07:55;;;;;;;7.75;5.93;;;;;;;18.30;45.25;101821.56;4969577;28;113058;-63
2023/06/15 04:10:23;;;;;;;9.80;5.68;;;;;;;18.29;45.38;101825.22;4970017;28;113147;-63
2023/06/15 04:12:51;;;;;;;9.35;6.05;;;;;;;18.29;45.52;101819.88;4967907;28;124262;-63
2023/06/15 04:15:18;;;;;;;7.68;6.20;;;;;;;18.29;45.45;101825.22;4969253;28;123470;-62
2023/06/15 04:17:48;;;;;;;7.72;6.13;;;;;;;18.30;45.54;101821.56;4967472;28;113922;-62
2023/06/15 04:20:15;;;;;;;9.60;6.40;;;;;;;18.33;45.77;101824.06;4970686;28;113052;-61
2023/06/15 04:22:47;;;;;;;9.20;5.97;;;;;;;18.34;45.82;101820.41;4966012;28;123954;-61
2023/06/15 04:25:16;;;;;;;12.77;6.15;;;;;;;18.38;45.85;101830.00;4960215;28;124051;-62
2023/06/15 04:27:46;;;;;;;8.00;6.05;;;;;;;18.39;45.89;101831.72;4968665;28;113375;-61
2023/06/15 04:30:24;;;;;;;8.63;6.40;;;;;;;18.42;45.91;101831.56;4957412;28;113425;-61
2023/06/15 04:33:04;;;;;;;8.45;6.32;;;;;;;18.46;46.13;101833.06;4964232;28;123947;-62
2023/06/15 04:35:34;;;;;;;8.93;6.47;;;;;;;18.49;46.00;101835.53;4969879;28;122994;-62
2023/06/15 04:38:04;;;;;;;9.02;6.60;;;;;;;18.53;46.17;101840.72;4951942;28;114084;-61
2023/06/15 04:40:32;;;;;;;8.35;6.40;;;;;;;18.57;46.33;101840.47;4969945;28;113092;-62
2023/06/15 04:43:02;;;;;;;8.57;5.97;;;;;;;18.62;46.46;101842.84;4968365;28;123876;-62
2023/06/15 04:45:30;;;;;;;10.07;6.70;;;;;;;18.67;46.54;101843.41;4969160;28;123242;-62
2023/06/15 04:47:58;;;;;;;8.25;5.88;;;;;;;18.76;46.69;101840.16;4966872;28;114972;-61
2023/06/15 04:50:25;;;;;;;11.63;6.28;;;;;;;18.85;46.79;101838.72;4961160;28;114822;-61
2023/06/15 04:52:53;;;;;;;10.20;6.25;;;;;;;18.97;47.11;101839.78;4955720;28;124253;-61
2023/06/15 04:55:20;;;;;;;10.70;5.93;;;;;;;19.11;46.96;101844.22;4966961;28;123685;-61
2023/06/15 04:57:48;;;;;;;10.23;6.72;;;;;;;19.24;47.22;101846.00;4957717;28;113581;-61
2023/06/15 05:00:16;;;;;;;8.60;6.40;;;;;;;19.39;47.38;101854.88;4959064;28;113290;-61
2023/06/15 05:02:48;;;;;;;7.00;5.90;;;;;;;19.53;47.28;101845.88;4968936;28;123312;-62
2023/06/15 05:05:16;;;;;;;11.02;6.78;;;;;;;19.67;46.84;101846.81;4968931;28;123088;-61
2023/06/15 05:07:44;;;;;;;9.02;6.50;;;;;;;19.80;46.81;101858.50;4969005;28;114744;-61
2023/06/15 05:10:11;;;;;;;11.43;7.05;;;;;;;19.92;46.62;101841.50;4955458;28;114003;-62
2023/06/15 05:12:40;;;;;;;10.18;7.10;;;;;;;20.05;46.35;101843.38;4968947;28;123458;-62
2023/06/15 05:15:07;;;;;;;11.43;7.30;;;;;;;20.15;46.26;101849.81;4968491;28;122913;-62
2023/06/15 05:17:35;;;;;;;10.77;6.60;;;;;;;20.27;46.21;101856.16;4968500;28;113401;-62
2023/06/15 05:20:05;;;;;;;11.57;7.03;;;;;;;20.37;46.23;101860.78;4969596;28;113459;-62
2023/06/15 05:22:32;;;;;;;10.15;7.22;;;;;;;20.48;46.05;101865.44;4968683;28;123220;-61
2023/06/15 05:25:00;;;;;;;9.65;7.13;;;;;;;20.58;46.09;101855.72;4969989;28;123762;-62
2023/06/15 05:27:28;;;;;;;11.60;7.38;;;;;;;20.69;45.90;101852.28;4968869;28;113696;-62
2023/06/15 05:29:57;;;;;;;9.18;7.20;;;;;;;20.78;45.94;101851.63;4968342;28;114175;-63
2023/06/15 05:32:24;;;;;;;11.45;7.13;;;;;;;20.88;45.76;101845.59;4967476;28;123794;-63
2023/06/15 05:34:52;;;;;;;11.05;7.88;;;;;;;21.00;45.98;101855.44;4967667;28;122985;-63
2023/06/15 05:37:19;;;;;;;13.70;7.32;;;;;;;21.10;45.69;101850.28;4969368;28;114174;-63
2023/06/15 05:39:47;;;;;;;10.57;7.50;;;;;;;21.19;45.76;101847.75;4967922;28;115219;-62
2023/06/15 05:42:15;;;;;;;8.45;6.90;;;;;;;21.33;45.53;101853.94;4968770;28;123220;-63
2023/06/15 05:44:45;;;;;;;8.90;7.13;;;;;;;21.44;45.47;101854.03;4966637;28;122951;-62
2023/06/15 05:47:14;;;;;;;9.85;7.03;;;;;;;21.54;45.05;101849.66;4969113;28;114003;-62
2023/06/15 05:49:42;;;;;;;9.30;6.82;;;;;;;21.67;45.47;101859.53;4968781;28;113131;-62
2023/06/15 05:52:10;;;;;;;10.30;7.10;;;;;;;21.80;45.06;101865.69;4968855;28;123655;-62
2023/06/15 05:54:37;;;;;;;10.60;7.35;;;;;;;21.89;44.89;101865.00;4955465;28;124556;-63
2023/06/15 05:57:05;;;;;;;12.10;7.50;;;;;;;22.01;44.80;101862.34;4969211;28;113419;-62
2023/06/15 05:59:32;;;;;;;11.43;7.30;;;;;;;22.12;44.67;101859.66;4968427;28;113271;-62
2023/06/15 06:02:02;;;;;;;12.98;7.78;;;;;;;22.23;44.46;101861.53;4961141;28;123138;-62
2023/06/15 06:04:34;;;;;;;12.10;7.63;;;;;;;22.33;44.44;101866.09;4970623;28;122966;-62
2023/06/15 06:07:06;;;;;;;10.13;7.63;;;;;;;22.42;44.37;101861.81;4971891;28;115206;-62
2023/06/15 06:09:35;;;;;;;12.13;7.60;;;;;;;22.52;44.32;101867.34;4971543;28;113182;-62
2023/06/15 06:12:04;;;;;;;13.27;7.50;;;;;;;22.64;44.38;101854.69;4972437;28;123261;-63
2023/06/15 06:14:32;;;;;;;11.05;7.13;;;;;;;22.77;44.26;101859.97;4970250;28;123093;-62
2023/06/15 06:16:59;;;;;;;11.07;7.28;;;;;;;22.90;44.01;101856.16;4971606;28;113555;-61
2023/06/15 06:19:27;;;;;;;9.68;7.25;;;;;;;23.03;43.79;101856.03;4972443;28;113233;-61
2023/06/15 06:21:54;;;;;;;13.20;7.78;;;;;;;23.19;43.83;101858.34;4971806;28;124280;-62
2023/06/15 06:24:21;;;;;;;12.73;7.07;;;;;;;23.35;43.84;101849.81;4971313;28;124034;-62
2023/06/15 06:26:52;;;;;;;9.70;7.07;;;;;;;23.51;43.44;101855.66;4970696;28;114917;-62
2023/06/15 06:29:20;;;;;;;9.35;7.20;;;;;;;23.66;42.97;101858.09;4969895;28;114471;-62
2023/06/15 06:31:47;;;;;;;10.38;6.88;;;;;;;23.76;42.92;101848.19;4959566;28;123997;-62
2023/06/15 06:34:14;;;;;;;10.23;7.10;;;;;;;23.89;43.04;101854.28;4970016;28;123897;-62
2023/06/15 06:36:41;;;;;;;9.85;6.88;;;;;;;24.06;42.70;101857.41;4969962;28;114589;-62
2023/06/15 06:39:09;;;;;;;11.15;7.45;;;;;;;24.20;42.42;101862.44;4972033;28;114341;-63
2023/06/15 06:41:36;;;;;;;10.95;7.38;;;;;;;24.34;42.29;101868.53;4972238;28;124478;-60
2023/06/15 06:44:03;;;;;;;12.02;7.85;;;;;;;24.46;42.04;101867.44;4970731;28;124023;-60
2023/06/15 06:46:30;;;;;;;11.15;6.72;;;;;;;24.60;41.89;101864.44;4967943;28;114164;-60
2023/06/15 06:48:58;;;;;;;10.55;6.93;;;;;;;24.74;41.65;101859.63;4968342;28;114189;-59
2023/06/15 06:51:25;;;;;;;11.20;7.05;;;;;;;24.90;41.69;101865.38;4968395;28;124633;-60
2023/06/15 06:53:53;;;;;;;9.82;6.72;;;;;;;25.06;41.37;101865.69;4968384;28;124417;-62
2023/06/15 06:56:21;;;;;;;8.82;5.90;;;;;;;25.24;40.97;101873.19;4966451;28;114283;-62
2023/06/15 06:58:48;;;;;;;8.68;5.75;;;;;;;25.39;40.53;101866.38;4963885;28;114033;-62
2023/06/15 07:01:15;;;;;;;8.68;5.88;;;;;;;25.52;40.04;101865.22;4947113;28;123399;-62
2023/06/15 07:03:42;;;;;;;14.13;5.88;;;;;;;25.66;39.87;101872.97;4959305;28;124626;-62
2023/06/15 07:06:10;;;;;;;7.25;6.40;;;;;;;25.82;39.42;101867.81;4966689;28;114627;-62
2023/06/15 07:08:37;;;;;;;9.00;5.90;;;;;;;25.99;39.67;101868.09;4959797;28;114741;-62
2023/06/15 07:11:04;;;;;;;11.82;6.20;;;;;;;26.15;39.61;101872.94;4963254;28;124300;-62
2023/06/15 07:13:31;;;;;;;7.78;5.45;;;;;;;26.32;39.53;101874.03;4965671;28;122678;-62
2023/06/15 07:15:59;;;;;;;8.25;6.60;;;;;;;26.46;38.94;101870.81;4955445;28;115147;-62
2023/06/15 07:18:26;;;;;;;9.82;5.70;;;;;;;26.53;38.47;101877.38;4968488;28;115375;-62
2023/06/15 07:20:53;;;;;;;8.35;6.35;;;;;;;26.60;38.40;101870.38;4961752;28;124929;-62
2023/06/15 07:23:22;;;;;;;11.40;6.22;;;;;;;26.65;38.63;101874.50;4969032;28;124686;-62
2023/06/15 07:25:50;;;;;;;10.13;6.03;;;;;;;26.75;38.20;101872.63;4965462;28;114224;-62
2023/06/15 07:28:18;;;;;;;9.20;6.47;;;;;;;26.86;37.91;101867.00;4966839;28;114391;-62
2023/06/15 07:30:49;;;;;;;11.63;6.30;;;;;;;26.95;37.70;101871.50;4964932;28;124877;-62
2023/06/15 07:33:17;;;;;;;10.82;6.00;;;;;;;27.06;37.77;101866.88;4966365;28;124057;-62
2023/06/15 07:35:45;;;;;;;8.25;5.95;;;;;;;27.19;38.14;101867.34;4959667;28;114741;-62
2023/06/15 07:38:14;;;;;;;11.32;6.03;;;;;;;27.30;36.91;101867.16;4966621;28;114677;-61
2023/06/15 07:40:42;;;;;;;11.57;6.13;;;;;;;27.34;37.06;101868.56;4962302;28;124101;-62
2023/06/15 07:43:10;;;;;;;9.75;6.60;;;;;;;27.41;36.71;101865.22;4963395;28;124263;-61
2023/06/15 07:45:37;;;;;;;8.50;5.50;;;;;;;27.47;36.83;101870.06;4964639;28;114342;-62
2023/06/15 07:48:05;;;;;;;9.30;6.03;;;;;;;27.58;37.17;101862.50;4953509;28;113927;-62
2023/06/15 07:50:32;;;;;;;9.68;5.60;;;;;;;27.72;37.27;101863.81;4962846;28;123902;-62
2023/06/15 07:53:00;;;;;;;8.00;5.88;;;;;;;27.84;36.70;101872.63;4976338;28;122960;-62
2023/06/15 07:55:27;;;;;;;10.73;5.97;;;;;;;27.91;36.46;101861.97;4962130;28;114397;-62
2023/06/15 07:57:55;;;;;;;12.05;5.40;;;;;;;28.00;35.62;101862.88;4958683;28;114041;-61
2023/06/15 08:00:22;;;;;;;8.60;5.40;;;;;;;28.04;35.97;101867.84;4956261;28;124530;-62
2023/06/15 08:02:58;;;;;;;8.38;4.82;;;;;;;28.13;35.59;101866.88;4955487;28;124378;-62
2023/06/15 08:05:26;;;;;;;14.85;4.72;;;;;;;28.23;35.43;101869.50;4969642;28;115552;-62
2023/06/15 08:07:53;;;;;;;7.93;4.38;;;;;;;28.35;35.27;101870.97;4963508;28;115834;-62
2023/06/15 08:10:21;;;;;;;5.78;3.60;;;;;;;28.49;34.58;101866.75;4963308;28;123998;-62
2023/06/15 08:12:49;;;;;;;7.03;3.30;;;;;;;28.60;34.66;101867.56;4963678;28;124134;-63
2023/06/15 08:15:16;;;;;;;4.28;3.13;;;;;;;28.71;33.35;101864.53;4963607;28;113023;-62
2023/06/15 08:17:43;;;;;;;6.85;3.40;;;;;;;28.84;33.99;101859.47;4967054;28;114129;-64
2023/06/15 08:20:12;;;;;;;7.97;3.60;;;;;;;28.99;33.03;101861.53;4967689;28;124390;-62
2023/06/15 08:22:39;;;;;;;7.70;3.38;;;;;;;29.10;32.66;101858.50;4966310;28;123733;-62
2023/06/15 08:25:07;;;;;;;3.53;2.67;;;;;;;29.17;31.92;101865.03;4959384;28;114260;-62
2023/06/15 08:27:35;;;;;;;4.20;2.90;;;;;;;29.21;32.14;101858.22;4966887;28;112954;-62
2023/06/15 08:30:03;;;;;;;7.13;3.00;;;;;;;29.33;32.39;101863.38;4946928;28;124348;-62
2023/06/15 08:32:30;;;;;;;6.18;3.20;;;;;;;29.48;31.83;101862.56;4966551;28;123057;-60
2023/06/15 08:34:58;;;;;;;8.73;3.50;;;;;;;29.56;31.10;101863.59;4967565;28;114607;-61
2023/06/15 08:37:26;;;;;;;5.63;3.67;;;;;;;29.57;30.86;101860.66;4957828;28;113976;-63
2023/06/15 08:39:53;;;;;;;6.65;4.05;;;;;;;29.58;31.01;101867.84;4964617;28;124868;-62
2023/06/15 08:42:23;;;;;;;9.73;3.30;;;;;;;29.59;31.04;101864.09;4960164;28;122100;-62
2023/06/15 08:44:52;;;;;;;9.35;3.80;;;;;;;29.64;31.19;101861.69;4962437;28;114166;-62
2023/06/15 08:47:21;;;;;;;17.77;13.27;;;;;;;29.68;30.15;101868.53;4961263;28;113907;-63
2023/06/15 08:49:49;;;;;;;8.80;5.03;;;;;;;29.62;29.94;101857.44;4976951;28;123173;-64
2023/06/15 08:52:20;;;;;;;5.68;3.53;;;;;;;29.60;30.15;101859.50;4960459;28;124171;-62
2023/06/15 08:54:51;;;;;;;6.40;3.50;;;;;;;29.64;30.25;101861.69;4960662;28;115710;-62
2023/06/15 08:57:20;;;;;;;9.50;3.60;;;;;;;29.73;30.45;101864.44;4962291;28;115224;-61
2023/06/15 08:59:47;;;;;;;4.82;3.42;;;;;;;29.78;30.10;101856.59;4961299;28;124246;-61
2023/06/15 09:02:20;;;;;;;10.30;3.58;;;;;;;29.84;30.52;101855.94;4966172;28;123467;-62
2023/06/15 09:04:50;;;;;;;5.53;3.70;;;;;;;29.93;30.13;101849.41;4969610;28;114460;-61
2023/06/15 09:07:18;;;;;;;7.63;3.40;;;;;;;29.99;30.06;101859.69;4970869;28;114353;-61
2023/06/15 09:10:15;;;;;;;6.50;3.33;;;;;;;30.00;29.57;101858.63;4967501;28;124246;-61
2023/06/15 09:12:43;;;;;;;6.38;2.97;;;;;;;29.98;29.45;101863.41;4967207;28;124654;-61
2023/06/15 09:15:15;;;;;;;7.88;3.17;;;;;;;29.96;28.77;101860.00;4967521;28;114431;-61
2023/06/15 09:17:43;;;;;;;4.80;3.10;;;;;;;29.89;28.62;101862.59;4970115;28;114606;-62
2023/06/15 09:20:10;;;;;;;6.00;2.90;;;;;;;29.83;29.11;101859.69;4959131;28;124249;-62
2023/06/15 09:22:43;;;;;;;5.55;3.15;;;;;;;29.81;29.71;101848.94;4964469;28;124634;-62
2023/06/15 09:25:16;;;;;;;4.47;2.90;;;;;;;29.83;29.28;101859.69;4968517;28;113530;-62
2023/06/15 09:27:57;;;;;;;3.95;2.97;;;;;;;29.87;29.03;101861.03;4959875;28;115347;-61
2023/06/15 09:30:38;;;;;;;8.75;3.90;;;;;;;29.88;28.58;101858.16;4956109;28;124014;-61
2023/06/15 09:33:16;;;;;;;5.90;3.13;;;;;;;29.82;28.37;101852.50;4963359;28;124191;-61
2023/06/15 09:36:02;;;;;;;6.22;2.70;;;;;;;29.78;28.77;101845.69;4964007;28;114014;-61
2023/06/15 09:38:33;;;;;;;6.22;2.83;;;;;;;29.83;28.41;101854.22;4968407;28;114267;-61
2023/06/15 09:41:04;;;;;;;6.53;3.03;;;;;;;29.91;28.68;101850.63;4969247;28;124536;-62
2023/06/15 09:43:39;;;;;;;8.38;3.25;;;;;;;29.98;28.10;101841.56;4960042;28;123832;-61
2023/06/15 09:46:14;;;;;;;4.97;2.90;;;;;;;30.06;28.52;101844.31;4965239;28;115733;-62
2023/06/15 09:48:46;;;;;;;15.25;4.50;;;;;;;30.16;28.08;101840.50;4961752;28;115377;-62
2023/06/15 09:51:15;;;;;;;7.22;3.78;;;;;;;30.18;28.22;101843.94;4961195;28;124631;-63
2023/06/15 09:53:43;;;;;;;6.47;3.55;;;;;;;30.13;28.21;101849.06;4971841;28;124043;-61
2023/06/15 09:56:11;;;;;;;4.78;2.90;;;;;;;30.03;27.86;101846.53;4966016;28;114415;-61
2023/06/15 09:59:02;;;;;;;4.78;2.95;;;;;;;29.94;27.75;101844.84;4968843;28;113819;-61
2023/06/15 10:01:35;;;;;;;4.28;3.15;;;;;;;29.93;28.60;101849.41;4971235;28;124103;-60
2023/06/15 10:04:04;;;;;;;7.53;3.30;;;;;;;30.01;28.47;101846.69;4962841;28;123890;-61
2023/06/15 10:06:33;;;;;;;6.03;3.00;;;;;;;30.12;28.22;101847.34;4951447;28;114596;-62
2023/06/15 10:09:04;;;;;;;5.65;3.10;;;;;;;30.17;28.07;101850.41;4955045;28;114262;-61
2023/06/15 10:11:37;;;;;;;8.30;3.58;;;;;;;30.22;28.48;101842.56;4957902;28;124282;-61
2023/06/15 10:14:21;;;;;;;6.80;3.67;;;;;;;30.31;28.32;101841.53;4962910;28;123965;-61
2023/06/15 10:16:53;;;;;;;6.20;3.77;;;;;;;30.35;28.17;101844.78;4960888;28;114002;-61
2023/06/15 10:19:23;;;;;;;5.28;3.58;;;;;;;30.31;27.83;101841.53;4963717;28;113029;-61
2023/06/15 10:21:52;;;;;;;5.60;3.55;;;;;;;30.23;27.67;101844.25;4955961;28;124921;-61
2023/06/15 10:24:22;;;;;;;6.43;3.40;;;;;;;30.20;27.91;101844.63;4960922;28;123893;-61
2023/06/15 10:26:50;;;;;;;6.82;3.38;;;;;;;30.20;27.75;101850.09;4977202;28;113302;-60
2023/06/15 10:29:31;;;;;;;4.95;2.85;;;;;;;30.27;27.54;101841.00;4959335;28;113848;-60
2023/06/15 10:32:06;;;;;;;4.65;3.00;;;;;;;30.36;27.36;101839.13;4972200;28;123124;-60
2023/06/15 10:34:53;;;;;;;4.05;3.47;;;;;;;30.41;26.75;101842.19;4965601;28;123797;-60
2023/06/15 10:37:36;;;;;;;5.65;3.00;;;;;;;30.47;27.45;101835.16;4960855;28;115360;-60
2023/06/15 10:40:20;;;;;;;5.15;3.40;;;;;;;30.57;27.13;101830.34;4965083;28;114960;-61
2023/06/15 10:42:48;;;;;;;6.63;4.03;;;;;;;30.64;27.50;101835.94;4959760;28;124998;-62
2023/06/15 10:45:21;;;;;;;5.72;3.67;;;;;;;30.73;28.10;101834.88;4957705;28;123913;-62
2023/06/15 10:47:50;;;;;;;6.32;3.88;;;;;;;30.85;28.12;101838.94;4974505;28;114366;-62
2023/06/15 10:50:17;;;;;;;7.45;3.78;;;;;;;30.93;27.48;101829.00;4970481;28;113014;-62
2023/06/15 10:52:45;;;;;;;7.97;3.45;;;;;;;30.96;27.43;101834.13;4969397;28;124011;-62
2023/06/15 10:55:15;;;;;;;5.53;3.60;;;;;;;31.01;27.48;101826.22;4973209;28;121721;-62
2023/06/15 10:57:42;;;;;;;10.20;3.55;;;;;;;31.04;27.28;101832.19;4964348;28;114550;-59
2023/06/15 11:00:11;;;;;;;6.07;3.35;;;;;;;31.07;26.83;101825.50;4950770;28;114422;-61
2023/06/15 11:02:44;;;;;;;6.68;3.17;;;;;;;31.11;26.38;101826.84;4963864;28;124040;-60
2023/06/15 11:05:12;;;;;;;7.70;3.05;;;;;;;31.07;26.56;101830.13;4953980;28;124742;-60
2023/06/15 11:07:47;;;;;;;8.00;3.13;;;;;;;31.01;26.01;101831.69;4968729;28;114687;-60
2023/06/15 11:10:16;;;;;;;5.88;3.22;;;;;;;30.89;25.83;101828.47;4956168;28;113738;-60
2023/06/15 11:12:46;;;;;;;5.13;2.88;;;;;;;30.76;25.48;101826.34;4962120;28;124044;-59
2023/06/15 11:15:15;;;;;;;8.88;2.90;;;;;;;30.65;25.81;101826.72;4963141;28;124001;-60
2023/06/15 11:18:03;;;;;;;4.45;3.05;;;;;;;30.63;26.20;101834.25;4969781;28;114032;-60
2023/06/15 11:20:42;;;;;;;8.07;3.15;;;;;;;30.69;25.85;101830.81;4960414;28;115221;-59
2023/06/15 11:23:11;;;;;;;6.00;3.55;;;;;;;30.76;26.03;101829.06;4970967;28;123562;-60
2023/06/15 11:25:54;;;;;;;4.32;2.55;;;;;;;30.82;25.44;101827.50;4964171;28;124807;-60